Time;durP1;ratioP1;P1;durP2;ratioP2;P2;SDS_P1;SDS_P2;PMS_P1;PMS_P2;Temp;Humidity;BMP_temperature;BMP_pressure;BME280_temperature;BME280_humidity;BME280_pressure;Samples;Min_cycle;Max_cycle;Signal;HPM_P1;HPM_P2
2024/03/16 00:01:15;;;;;;;6.65;2.80;;;;;;;;;;5087357;28;20029;-83
2024/03/16 00:03:42;;;;;;;6.10;2.30;;;;;;;;;;5072177;28;20099;-85
2024/03/16 00:06:10;;;;;;;4.18;2.72;;;;;;;;;;5071781;28;20025;-84
2024/03/16 00:08:36;;;;;;;2.67;2.10;;;;;;;;;;5089348;28;20024;-83
2024/03/16 00:11:02;;;;;;;4.32;1.98;;;;;;;;;;5072069;28;20020;-84
2024/03/16 00:13:29;;;;;;;5.35;2.28;;;;;;;;;;5071676;28;20048;-83
2024/03/16 00:15:56;;;;;;;5.10;2.75;;;;;;;;;;5071225;28;20770;-82
2024/03/16 00:18:21;;;;;;;6.13;2.72;;;;;;;;;;5071542;28;20122;-82
2024/03/16 00:20:47;;;;;;;3.03;2.10;;;;;;;;;;5070304;28;20032;-84
2024/03/16 00:23:13;;;;;;;3.13;1.85;;;;;;;;;;5070807;28;20048;-84
2024/03/16 00:25:40;;;;;;;4.63;2.38;;;;;;;;;;5070494;28;20031;-84
2024/03/16 00:28:07;;;;;;;4.43;2.38;;;;;;;;;;5071283;28;20092;-84
2024/03/16 00:30:33;;;;;;;5.22;2.30;;;;;;;;;;5070494;28;20557;-83
2024/03/16 00:32:58;;;;;;;3.78;2.30;;;;;;;;;;5088807;28;20024;-83
2024/03/16 00:35:24;;;;;;;3.80;2.42;;;;;;;;;;5070982;28;20025;-84
2024/03/16 00:37:50;;;;;;;3.70;2.35;;;;;;;;;;5071013;28;20048;-84
2024/03/16 00:40:19;;;;;;;3.65;2.35;;;;;;;;;;5070644;28;20029;-83
2024/03/16 00:42:45;;;;;;;5.82;2.67;;;;;;;;;;5088129;28;20025;-84
2024/03/16 00:45:11;;;;;;;4.97;2.50;;;;;;;;;;5069487;28;20043;-85
2024/03/16 00:47:36;;;;;;;4.40;2.22;;;;;;;;;;5088599;28;20025;-85
2024/03/16 00:50:02;;;;;;;6.63;2.75;;;;;;;;;;5086878;28;20027;-82
2024/03/16 00:52:28;;;;;;;6.65;2.47;;;;;;;;;;5070510;28;20468;-83
2024/03/16 00:54:53;;;;;;;5.70;2.53;;;;;;;;;;5070037;28;20043;-85
2024/03/16 00:57:19;;;;;;;7.53;2.20;;;;;;;;;;5070204;28;20028;-84
2024/03/16 00:59:46;;;;;;;4.95;2.42;;;;;;;;;;5087461;28;20065;-85
2024/03/16 01:02:12;;;;;;;4.68;1.92;;;;;;;;;;5088117;28;20051;-83
2024/03/16 01:04:37;;;;;;;3.13;2.10;;;;;;;;;;5070511;28;20504;-85
2024/03/16 01:07:05;;;;;;;4.15;2.70;;;;;;;;;;5072481;28;20028;-85
2024/03/16 01:09:30;;;;;;;9.43;2.97;;;;;;;;;;5092726;28;20028;-83
2024/03/16 01:11:56;;;;;;;4.13;2.70;;;;;;;;;;5073788;28;20038;-83
2024/03/16 01:14:22;;;;;;;5.65;2.95;;;;;;;;;;5091830;28;20029;-84
2024/03/16 01:16:47;;;;;;;3.35;2.95;;;;;;;;;;5073945;28;20031;-85
2024/03/16 01:19:13;;;;;;;2.88;2.30;;;;;;;;;;5074179;28;20081;-83
2024/03/16 01:21:39;;;;;;;3.83;2.38;;;;;;;;;;5073705;28;20024;-85
2024/03/16 01:24:05;;;;;;;5.47;2.60;;;;;;;;;;5074904;28;20040;-84
2024/03/16 01:26:31;;;;;;;7.57;2.97;;;;;;;;;;5074384;28;20062;-84
2024/03/16 01:28:59;;;;;;;8.52;3.55;;;;;;;;;;5073763;28;20029;-84
2024/03/16 01:31:26;;;;;;;7.25;2.50;;;;;;;;;;5072943;28;20012;-83
2024/03/16 01:33:52;;;;;;;5.22;2.80;;;;;;;;;;5091665;28;20004;-84
2024/03/16 01:36:19;;;;;;;8.63;3.45;;;;;;;;;;5091665;28;20032;-84
2024/03/16 01:38:45;;;;;;;5.07;2.95;;;;;;;;;;5090793;28;20040;-84
2024/03/16 01:41:11;;;;;;;4.82;2.70;;;;;;;;;;5073305;28;20070;-84
2024/03/16 01:43:37;;;;;;;6.22;3.22;;;;;;;;;;5074078;28;20032;-83
2024/03/16 01:46:04;;;;;;;6.10;2.80;;;;;;;;;;5073461;28;20035;-85
2024/03/16 01:48:30;;;;;;;7.97;3.30;;;;;;;;;;5073095;28;20092;-85
2024/03/16 01:50:56;;;;;;;8.52;3.10;;;;;;;;;;5073594;28;20051;-84
2024/03/16 01:53:22;;;;;;;6.93;2.78;;;;;;;;;;5072873;28;20031;-84
2024/03/16 01:55:48;;;;;;;5.05;2.60;;;;;;;;;;5057033;28;20036;-84
2024/03/16 01:58:14;;;;;;;6.85;3.20;;;;;;;;;;5090827;28;20071;-84
2024/03/16 02:00:45;;;;;;;4.75;2.92;;;;;;;;;;5072767;28;20231;-84
2024/03/16 02:03:14;;;;;;;6.90;2.97;;;;;;;;;;5056511;28;20124;-84
2024/03/16 02:05:41;;;;;;;5.55;2.80;;;;;;;;;;5073990;28;20036;-84
2024/03/16 02:08:08;;;;;;;5.28;2.83;;;;;;;;;;5072708;28;20029;-83
2024/03/16 02:10:34;;;;;;;5.45;2.85;;;;;;;;;;5072637;28;20051;-85
2024/03/16 02:13:00;;;;;;;7.38;3.53;;;;;;;;;;5072896;28;20054;-85
2024/03/16 02:15:26;;;;;;;5.10;2.90;;;;;;;;;;5073047;28;20024;-85
2024/03/16 02:17:52;;;;;;;6.95;3.40;;;;;;;;;;5090218;28;20036;-85
2024/03/16 02:20:19;;;;;;;7.05;2.72;;;;;;;;;;5073144;28;20028;-84
2024/03/16 02:22:46;;;;;;;4.72;2.78;;;;;;;;;;5090487;28;20019;-84
2024/03/16 02:25:12;;;;;;;6.03;3.50;;;;;;;;;;5091478;28;20048;-84
2024/03/16 02:27:38;;;;;;;4.38;2.85;;;;;;;;;;5073708;28;20025;-85
2024/03/16 02:30:10;;;;;;;4.60;2.88;;;;;;;;;;5090452;28;20021;-85
2024/03/16 02:32:37;;;;;;;4.88;2.97;;;;;;;;;;5072259;28;20025;-84
2024/03/16 02:35:03;;;;;;;3.38;2.83;;;;;;;;;;5072696;28;20068;-84
2024/03/16 02:37:29;;;;;;;3.33;2.85;;;;;;;;;;5056422;28;20037;-84
2024/03/16 02:39:54;;;;;;;2.83;2.47;;;;;;;;;;5090768;28;20083;-85
2024/03/16 02:42:22;;;;;;;5.78;2.90;;;;;;;;;;5073615;28;20024;-85
2024/03/16 02:44:48;;;;;;;5.70;2.90;;;;;;;;;;5073905;28;20021;-85
2024/03/16 02:47:14;;;;;;;6.20;2.95;;;;;;;;;;5073742;28;20025;-84
2024/03/16 02:49:40;;;;;;;7.07;3.00;;;;;;;;;;5073180;28;20035;-84
2024/03/16 02:52:06;;;;;;;4.90;2.40;;;;;;;;;;5058313;28;20032;-85
2024/03/16 02:54:31;;;;;;;6.35;3.28;;;;;;;;;;5073471;28;20033;-85
2024/03/16 02:56:57;;;;;;;3.97;2.83;;;;;;;;;;5089926;28;20025;-83
2024/03/16 02:59:23;;;;;;;4.38;2.60;;;;;;;;;;5072349;28;20029;-85
2024/03/16 03:01:51;;;;;;;6.75;3.10;;;;;;;;;;5090516;28;20029;-84
2024/03/16 03:04:19;;;;;;;6.07;3.03;;;;;;;;;;5091204;28;20048;-84
2024/03/16 03:06:47;;;;;;;5.18;2.70;;;;;;;;;;5090907;28;20029;-84
2024/03/16 03:09:13;;;;;;;6.10;2.78;;;;;;;;;;5089854;28;20090;-84
2024/03/16 03:11:39;;;;;;;6.72;2.67;;;;;;;;;;5072353;28;20016;-86
2024/03/16 03:14:08;;;;;;;5.22;2.70;;;;;;;;;;5090228;28;20029;-85
2024/03/16 03:16:33;;;;;;;4.65;3.10;;;;;;;;;;5072357;28;20024;-85
2024/03/16 03:19:00;;;;;;;6.60;3.33;;;;;;;;;;5071171;28;20092;-85
2024/03/16 03:21:28;;;;;;;4.97;3.00;;;;;;;;;;5071754;28;20024;-85
2024/03/16 03:23:54;;;;;;;7.18;3.17;;;;;;;;;;5089600;28;20024;-84
2024/03/16 03:26:23;;;;;;;8.23;4.13;;;;;;;;;;5072220;28;20086;-84
2024/03/16 03:28:48;;;;;;;4.28;2.95;;;;;;;;;;5071200;28;20063;-85
2024/03/16 03:31:14;;;;;;;7.28;3.20;;;;;;;;;;5072682;28;20021;-85
2024/03/16 03:33:40;;;;;;;5.75;2.88;;;;;;;;;;5072365;28;20043;-84
2024/03/16 03:36:06;;;;;;;5.35;2.78;;;;;;;;;;5071741;28;20090;-85
2024/03/16 03:38:31;;;;;;;5.80;3.05;;;;;;;;;;5072007;28;20063;-85
2024/03/16 03:40:57;;;;;;;9.15;3.38;;;;;;;;;;5071987;28;20021;-84
2024/03/16 03:43:24;;;;;;;5.20;2.75;;;;;;;;;;5072682;28;20024;-84
2024/03/16 03:45:52;;;;;;;5.45;2.95;;;;;;;;;;5071958;28;20033;-84
2024/03/16 03:50:55;;;;;;;5.50;3.22;;;;;;;;;;5090061;28;20032;-83
2024/03/16 03:53:22;;;;;;;5.95;2.90;;;;;;;;;;5072268;28;20062;-84
2024/03/16 03:55:48;;;;;;;3.95;2.65;;;;;;;;;;5071777;28;20024;-85
2024/03/16 03:58:14;;;;;;;3.58;2.60;;;;;;;;;;5090431;28;20017;-85
2024/03/16 04:00:44;;;;;;;5.18;2.90;;;;;;;;;;5071722;28;20101;-84
2024/03/16 04:03:10;;;;;;;5.03;2.80;;;;;;;;;;5089809;28;20021;-85
2024/03/16 04:05:36;;;;;;;8.45;3.28;;;;;;;;;;5090071;28;20033;-85
2024/03/16 04:08:04;;;;;;;6.47;3.08;;;;;;;;;;5090825;28;20043;-84
2024/03/16 04:10:30;;;;;;;3.85;2.45;;;;;;;;;;5089480;28;20032;-84
2024/03/16 04:12:56;;;;;;;3.45;2.40;;;;;;;;;;5071846;28;20031;-85
2024/03/16 04:15:23;;;;;;;4.55;2.67;;;;;;;;;;5090168;28;20384;-84
2024/03/16 04:17:50;;;;;;;5.63;2.90;;;;;;;;;;5072445;28;20030;-85
2024/03/16 04:20:17;;;;;;;8.90;3.40;;;;;;;;;;5090219;28;20017;-85
2024/03/16 04:22:44;;;;;;;4.00;2.65;;;;;;;;;;5071875;28;20095;-84
2024/03/16 04:25:14;;;;;;;4.60;3.08;;;;;;;;;;5072602;28;20431;-83
2024/03/16 04:27:41;;;;;;;5.10;2.72;;;;;;;;;;5055087;28;20032;-83
2024/03/16 04:30:08;;;;;;;5.88;3.05;;;;;;;;;;5070423;28;20091;-85
2024/03/16 04:32:35;;;;;;;5.63;3.00;;;;;;;;;;5071771;28;20044;-85
2024/03/16 04:35:05;;;;;;;4.60;2.78;;;;;;;;;;5071104;28;20115;-84
2024/03/16 04:37:31;;;;;;;3.83;2.90;;;;;;;;;;5072856;28;20029;-82
2024/03/16 04:39:58;;;;;;;6.80;2.97;;;;;;;;;;5071844;28;20050;-85
2024/03/16 04:42:24;;;;;;;3.47;2.70;;;;;;;;;;5074692;28;20048;-86
2024/03/16 04:44:50;;;;;;;9.70;3.22;;;;;;;;;;5076290;28;20088;-84
2024/03/16 04:47:16;;;;;;;3.80;2.58;;;;;;;;;;5075043;28;20365;-85
2024/03/16 04:49:45;;;;;;;4.70;2.53;;;;;;;;;;5075769;28;20017;-85
2024/03/16 04:52:13;;;;;;;4.75;2.75;;;;;;;;;;5093823;28;20029;-84
2024/03/16 04:54:40;;;;;;;4.93;2.90;;;;;;;;;;5092967;28;20048;-84
2024/03/16 04:57:06;;;;;;;4.18;2.58;;;;;;;;;;5075198;28;20008;-84
2024/03/16 04:59:31;;;;;;;11.02;3.38;;;;;;;;;;5075219;28;20051;-84
2024/03/16 05:01:57;;;;;;;6.43;3.00;;;;;;;;;;5076441;28;20028;-84
2024/03/16 05:04:23;;;;;;;4.70;3.05;;;;;;;;;;5075049;28;20123;-84
2024/03/16 05:06:49;;;;;;;5.15;2.78;;;;;;;;;;5076296;28;20021;-85
2024/03/16 05:09:15;;;;;;;6.10;2.80;;;;;;;;;;5075776;28;20075;-85
2024/03/16 05:11:41;;;;;;;6.75;3.40;;;;;;;;;;5075799;28;20037;-84
2024/03/16 05:14:07;;;;;;;6.35;3.10;;;;;;;;;;5092912;28;20019;-84
2024/03/16 05:16:39;;;;;;;3.92;2.97;;;;;;;;;;5075524;28;20036;-85
2024/03/16 05:19:06;;;;;;;4.47;3.13;;;;;;;;;;5074037;28;20040;-84
2024/03/16 05:21:32;;;;;;;7.28;3.60;;;;;;;;;;5073872;28;20039;-84
2024/03/16 05:24:01;;;;;;;9.90;3.15;;;;;;;;;;5074770;28;20040;-85
2024/03/16 05:26:28;;;;;;;4.30;2.85;;;;;;;;;;5074597;28;20031;-86
2024/03/16 05:28:55;;;;;;;5.60;3.78;;;;;;;;;;5074886;28;20028;-85
2024/03/16 05:31:20;;;;;;;7.22;3.70;;;;;;;;;;5075126;28;20036;-84
2024/03/16 05:33:48;;;;;;;8.13;3.38;;;;;;;;;;5074782;28;20043;-86
2024/03/16 05:36:15;;;;;;;6.93;2.95;;;;;;;;;;5074705;28;20052;-85
2024/03/16 05:38:43;;;;;;;5.82;3.47;;;;;;;;;;5074343;28;20503;-84
2024/03/16 05:41:10;;;;;;;6.80;3.47;;;;;;;;;;5091294;28;20056;-84
2024/03/16 05:43:35;;;;;;;7.20;3.28;;;;;;;;;;5074286;28;20111;-85
2024/03/16 05:46:03;;;;;;;7.15;3.20;;;;;;;;;;5091987;28;20051;-85
2024/03/16 05:48:29;;;;;;;5.05;3.75;;;;;;;;;;5074494;28;20066;-84
2024/03/16 05:50:57;;;;;;;5.00;3.05;;;;;;;;;;5073500;28;20058;-85
2024/03/16 05:53:24;;;;;;;8.43;3.40;;;;;;;;;;5091309;28;20025;-85
2024/03/16 05:55:50;;;;;;;4.63;3.17;;;;;;;;;;5072901;28;20035;-85
2024/03/16 05:58:16;;;;;;;6.80;3.40;;;;;;;;;;5092003;28;20154;-83
2024/03/16 06:00:44;;;;;;;4.65;3.20;;;;;;;;;;5073478;28;20041;-85
2024/03/16 06:03:10;;;;;;;6.15;3.63;;;;;;;;;;5073746;28;20032;-84
2024/03/16 06:05:36;;;;;;;4.50;3.20;;;;;;;;;;5073005;28;20532;-84
2024/03/16 06:08:05;;;;;;;8.07;3.60;;;;;;;;;;5073870;28;20032;-84
2024/03/16 06:10:33;;;;;;;4.45;3.60;;;;;;;;;;5091121;28;20040;-83
2024/03/16 06:12:58;;;;;;;6.72;3.85;;;;;;;;;;5073858;28;20054;-84
2024/03/16 06:15:24;;;;;;;5.43;3.08;;;;;;;;;;5073223;28;20048;-85
2024/03/16 06:17:52;;;;;;;4.25;3.45;;;;;;;;;;5091289;28;20587;-85
2024/03/16 06:20:18;;;;;;;5.65;3.63;;;;;;;;;;5072274;28;20451;-84
2024/03/16 06:22:45;;;;;;;6.18;3.45;;;;;;;;;;5073226;28;20102;-85
2024/03/16 06:25:13;;;;;;;8.27;3.40;;;;;;;;;;5092102;28;20031;-86
2024/03/16 06:27:49;;;;;;;5.82;3.70;;;;;;;;;;5073530;28;20464;-84
2024/03/16 06:30:16;;;;;;;5.47;3.22;;;;;;;;;;5091631;28;20076;-85
2024/03/16 06:35:27;;;;;;;4.65;3.70;;;;;;;;;;5077287;28;20503;-83
2024/03/16 06:37:53;;;;;;;7.05;4.22;;;;;;;;;;5073507;28;20028;-84
2024/03/16 06:40:20;;;;;;;6.88;3.60;;;;;;;;;;5073748;28;20036;-84
2024/03/16 06:42:47;;;;;;;5.20;3.95;;;;;;;;;;5091682;28;20004;-85
2024/03/16 06:45:14;;;;;;;7.80;3.85;;;;;;;;;;5056393;28;20138;-82
2024/03/16 06:47:40;;;;;;;5.28;4.40;;;;;;;;;;5073161;28;20116;-85
2024/03/16 06:50:10;;;;;;;9.15;4.68;;;;;;;;;;5089904;28;20017;-85
2024/03/16 06:52:35;;;;;;;8.35;4.47;;;;;;;;;;5091587;28;20016;-85
2024/03/16 06:55:03;;;;;;;5.82;4.25;;;;;;;;;;5073259;28;20039;-84
2024/03/16 06:57:29;;;;;;;7.25;4.55;;;;;;;;;;5057462;28;20019;-84
2024/03/16 06:59:55;;;;;;;10.60;5.38;;;;;;;;;;5073797;28;20028;-85
2024/03/16 07:02:21;;;;;;;8.23;4.68;;;;;;;;;;5070226;28;20028;-86
2024/03/16 07:04:49;;;;;;;7.95;4.82;;;;;;;;;;5060209;28;20476;-86
2024/03/16 07:07:14;;;;;;;6.43;4.63;;;;;;;;;;5078331;28;20236;-86
2024/03/16 07:09:40;;;;;;;11.18;5.22;;;;;;;;;;5059469;28;20417;-86
2024/03/16 07:12:05;;;;;;;6.85;5.10;;;;;;;;;;5060511;28;20036;-86
2024/03/16 07:14:32;;;;;;;5.55;4.57;;;;;;;;;;5060725;28;20504;-86
2024/03/16 07:16:57;;;;;;;7.70;4.95;;;;;;;;;;5060518;28;20020;-85
2024/03/16 07:19:23;;;;;;;7.03;5.32;;;;;;;;;;5044039;28;20384;-85
2024/03/16 07:21:52;;;;;;;6.40;4.70;;;;;;;;;;5060620;28;20448;-86
2024/03/16 07:24:18;;;;;;;7.35;4.93;;;;;;;;;;5061139;28;20029;-86
2024/03/16 07:26:44;;;;;;;9.10;4.72;;;;;;;;;;5061962;28;20090;-86
2024/03/16 07:29:10;;;;;;;7.32;4.85;;;;;;;;;;5079130;28;20032;-86
2024/03/16 07:31:36;;;;;;;5.88;4.28;;;;;;;;;;5079681;28;20028;-87
2024/03/16 07:34:03;;;;;;;4.72;3.78;;;;;;;;;;5079750;28;20046;-86
2024/03/16 07:36:31;;;;;;;7.25;3.97;;;;;;;;;;5061888;28;20024;-87
2024/03/16 07:38:57;;;;;;;4.68;3.85;;;;;;;;;;5060713;28;20039;-87
2024/03/16 07:41:23;;;;;;;7.05;4.00;;;;;;;;;;5077798;28;20008;-87
2024/03/16 07:43:49;;;;;;;5.20;4.00;;;;;;;;;;5078882;28;20113;-86
2024/03/16 07:46:15;;;;;;;6.25;3.78;;;;;;;;;;5076659;28;20059;-86
2024/03/16 07:48:41;;;;;;;3.83;3.40;;;;;;;;;;5077667;28;20486;-84
2024/03/16 07:51:09;;;;;;;4.65;3.10;;;;;;;;;;5043232;28;20059;-86
2024/03/16 07:53:35;;;;;;;5.40;3.42;;;;;;;;;;5076624;28;20101;-86
2024/03/16 07:56:01;;;;;;;3.53;2.35;;;;;;;;;;5059401;28;20067;-86
2024/03/16 07:58:27;;;;;;;2.60;2.20;;;;;;;;;;5078544;28;20028;-86
2024/03/16 08:00:53;;;;;;;3.15;2.13;;;;;;;;;;5060273;28;20052;-87
2024/03/16 08:03:18;;;;;;;1.90;1.40;;;;;;;;;;5076758;28;20046;-86
2024/03/16 08:05:44;;;;;;;1.52;1.42;;;;;;;;;;5060096;28;20032;-87
2024/03/16 08:08:10;;;;;;;6.32;1.77;;;;;;;;;;5076824;28;20228;-87
2024/03/16 08:10:36;;;;;;;3.80;1.50;;;;;;;;;;5075524;28;20083;-84
2024/03/16 08:13:01;;;;;;;2.63;1.65;;;;;;;;;;5076581;28;20039;-86
2024/03/16 08:15:27;;;;;;;2.55;1.65;;;;;;;;;;5059153;28;20032;-87
2024/03/16 08:17:54;;;;;;;2.92;1.30;;;;;;;;;;5058499;28;20025;-88
2024/03/16 08:20:20;;;;;;;13.30;6.68;;;;;;;;;;5076885;28;20019;-85
2024/03/16 08:22:54;;;;;;;3.67;1.90;;;;;;;;;;5076881;28;20048;-87
2024/03/16 08:25:22;;;;;;;7.60;1.60;;;;;;;;;;5077601;28;20039;-88
2024/03/16 08:27:48;;;;;;;2.05;1.42;;;;;;;;;;5076926;28;20025;-86
2024/03/16 08:30:14;;;;;;;6.68;1.77;;;;;;;;;;5075810;28;20076;-86
2024/03/16 08:32:40;;;;;;;1.83;1.30;;;;;;;;;;5057243;28;20177;-87
2024/03/16 08:35:06;;;;;;;3.72;1.90;;;;;;;;;;5058375;28;20036;-86
2024/03/16 08:37:32;;;;;;;5.45;1.50;;;;;;;;;;5057968;28;20175;-85
2024/03/16 08:39:57;;;;;;;2.15;1.08;;;;;;;;;;5057973;28;20052;-85
2024/03/16 08:42:23;;;;;;;4.55;1.20;;;;;;;;;;5075856;28;20029;-86
2024/03/16 08:44:48;;;;;;;3.03;1.67;;;;;;;;;;5058167;28;20428;-86
2024/03/16 08:47:14;;;;;;;5.80;1.42;;;;;;;;;;5077405;28;20081;-86
2024/03/16 08:49:39;;;;;;;3.40;1.27;;;;;;;;;;5058224;28;20024;-86
2024/03/16 08:52:05;;;;;;;4.10;1.08;;;;;;;;;;5058582;28;20039;-86
2024/03/16 08:54:32;;;;;;;3.83;0.82;;;;;;;;;;5077017;28;20037;-87
2024/03/16 08:56:59;;;;;;;2.22;1.02;;;;;;;;;;5076572;28;20063;-86
2024/03/16 08:59:25;;;;;;;3.83;1.02;;;;;;;;;;5058734;28;20481;-86
2024/03/16 09:01:50;;;;;;;1.08;0.90;;;;;;;;;;5059005;28;20090;-87
2024/03/16 09:04:18;;;;;;;3.30;1.23;;;;;;;;;;5076669;28;20056;-86
2024/03/16 09:06:44;;;;;;;2.65;1.10;;;;;;;;;;5058396;28;20031;-86
2024/03/16 09:09:15;;;;;;;3.63;1.50;;;;;;;;;;5058677;28;20043;-87
2024/03/16 09:11:41;;;;;;;4.97;1.27;;;;;;;;;;5077288;28;20048;-87
2024/03/16 09:14:06;;;;;;;2.67;1.10;;;;;;;;;;5057294;28;20260;-86
2024/03/16 09:16:36;;;;;;;2.30;1.08;;;;;;;;;;5076779;28;20128;-87
2024/03/16 09:19:02;;;;;;;1.77;1.20;;;;;;;;;;5041765;28;20039;-86
2024/03/16 09:21:28;;;;;;;1.45;0.95;;;;;;;;;;5058075;28;20024;-88
2024/03/16 09:23:57;;;;;;;4.70;1.20;;;;;;;;;;5060039;28;20035;-84
2024/03/16 09:26:23;;;;;;;3.15;1.05;;;;;;;;;;5059824;28;20123;-86
2024/03/16 09:28:48;;;;;;;5.85;1.13;;;;;;;;;;5062406;28;20500;-86
2024/03/16 09:31:14;;;;;;;1.75;1.15;;;;;;;;;;5063746;28;20021;-87
2024/03/16 09:33:39;;;;;;;1.02;0.90;;;;;;;;;;5080129;28;20024;-87
2024/03/16 09:36:08;;;;;;;1.42;0.90;;;;;;;;;;5080238;28;20044;-86
2024/03/16 09:38:34;;;;;;;2.33;1.17;;;;;;;;;;5079579;28;20385;-88
2024/03/16 09:41:00;;;;;;;1.05;0.70;;;;;;;;;;5080483;28;20416;-85
2024/03/16 09:43:26;;;;;;;3.45;0.80;;;;;;;;;;5061896;28;20029;-85
2024/03/16 09:45:54;;;;;;;0.70;0.60;;;;;;;;;;5061793;28;20012;-87
2024/03/16 09:48:21;;;;;;;1.25;0.70;;;;;;;;;;5061211;28;20121;-86
2024/03/16 09:50:54;;;;;;;2.15;0.77;;;;;;;;;;5061354;28;20047;-86
2024/03/16 09:53:30;;;;;;;0.93;0.60;;;;;;;;;;5062336;28;20614;-87
2024/03/16 09:55:57;;;;;;;1.02;0.75;;;;;;;;;;5061632;28;20039;-87
2024/03/16 09:58:25;;;;;;;2.35;0.73;;;;;;;;;;5061859;28;20102;-86
2024/03/16 10:00:54;;;;;;;1.92;0.88;;;;;;;;;;5079443;28;20096;-86
2024/03/16 10:03:21;;;;;;;3.53;0.90;;;;;;;;;;5080063;28;20048;-86
2024/03/16 10:05:46;;;;;;;0.70;0.70;;;;;;;;;;5080118;28;20020;-87
2024/03/16 10:08:20;;;;;;;4.05;2.55;;;;;;;;;;5062274;28;20024;-85
2024/03/16 10:10:47;;;;;;;1.25;0.90;;;;;;;;;;5062215;28;20392;-85
2024/03/16 10:13:12;;;;;;;1.42;0.80;;;;;;;;;;5061292;28;20084;-86
2024/03/16 10:15:44;;;;;;;1.65;1.00;;;;;;;;;;5078804;28;20109;-86
2024/03/16 10:18:11;;;;;;;5.88;1.45;;;;;;;;;;5061814;28;20031;-86
2024/03/16 10:20:37;;;;;;;5.88;1.25;;;;;;;;;;5060914;28;20116;-85
2024/03/16 10:23:08;;;;;;;3.95;0.90;;;;;;;;;;5043252;28;20040;-87
2024/03/16 10:25:37;;;;;;;3.75;1.38;;;;;;;;;;5061695;28;20480;-86
2024/03/16 10:28:07;;;;;;;2.03;0.90;;;;;;;;;;5061324;28;20032;-86
2024/03/16 10:30:34;;;;;;;2.28;0.85;;;;;;;;;;5078499;28;20060;-87
2024/03/16 10:33:00;;;;;;;3.47;1.20;;;;;;;;;;5079958;28;20036;-85
2024/03/16 10:35:26;;;;;;;1.85;0.60;;;;;;;;;;5079863;28;20033;-87
2024/03/16 10:37:52;;;;;;;1.58;0.80;;;;;;;;;;5061286;28;20128;-87
2024/03/16 10:40:24;;;;;;;2.88;0.80;;;;;;;;;;5060980;28;20028;-87
2024/03/16 10:42:51;;;;;;;2.05;0.88;;;;;;;;;;5061712;28;20028;-87
2024/03/16 10:45:19;;;;;;;1.60;0.82;;;;;;;;;;5080511;28;20460;-86
2024/03/16 10:47:50;;;;;;;3.45;0.75;;;;;;;;;;5080032;28;20512;-87
2024/03/16 10:50:19;;;;;;;2.22;0.85;;;;;;;;;;5080719;28;20054;-87
2024/03/16 10:52:47;;;;;;;2.35;0.90;;;;;;;;;;5063068;28;20020;-87
2024/03/16 10:55:15;;;;;;;3.25;0.80;;;;;;;;;;5062310;28;20059;-87
2024/03/16 10:57:46;;;;;;;1.95;0.73;;;;;;;;;;5061586;28;20038;-87
2024/03/16 11:00:20;;;;;;;5.80;0.93;;;;;;;;;;5078961;28;20036;-86
2024/03/16 11:03:01;;;;;;;2.70;0.90;;;;;;;;;;5062280;28;20077;-87
2024/03/16 11:05:45;;;;;;;3.58;0.90;;;;;;;;;;5061574;28;20025;-87
2024/03/16 11:08:13;;;;;;;2.83;0.63;;;;;;;;;;5061111;28;20076;-88
2024/03/16 11:10:39;;;;;;;1.75;0.70;;;;;;;;;;5061067;28;20296;-85
2024/03/16 11:13:23;;;;;;;2.10;0.60;;;;;;;;;;5060982;28;20438;-86
2024/03/16 11:15:50;;;;;;;4.93;0.70;;;;;;;;;;5061611;28;20029;-87
2024/03/16 11:18:15;;;;;;;0.50;0.50;;;;;;;;;;5061421;28;20044;-87
2024/03/16 11:20:43;;;;;;;0.68;0.50;;;;;;;;;;5078945;28;20045;-86
2024/03/16 11:23:30;;;;;;;0.95;0.68;;;;;;;;;;5061141;28;20035;-87
2024/03/16 11:25:58;;;;;;;1.38;0.60;;;;;;;;;;5077928;28;20029;-86
2024/03/16 11:28:25;;;;;;;0.50;0.50;;;;;;;;;;5060819;28;20043;-85
2024/03/16 11:30:50;;;;;;;0.38;0.38;;;;;;;;;;5060785;28;20028;-88
2024/03/16 11:33:18;;;;;;;1.50;0.40;;;;;;;;;;5060573;28;20074;-85
2024/03/16 11:35:44;;;;;;;1.27;0.38;;;;;;;;;;5060201;28;20050;-87
2024/03/16 11:38:18;;;;;;;0.50;0.40;;;;;;;;;;5078389;28;20024;-87
2024/03/16 11:40:47;;;;;;;0.55;0.55;;;;;;;;;;5059861;28;20373;-87
2024/03/16 11:43:13;;;;;;;1.38;0.57;;;;;;;;;;5060672;28;20113;-85
2024/03/16 11:45:46;;;;;;;3.25;0.68;;;;;;;;;;5077073;28;20024;-86
2024/03/16 11:48:13;;;;;;;0.43;0.40;;;;;;;;;;5059943;28;20028;-87
2024/03/16 11:50:39;;;;;;;0.73;0.40;;;;;;;;;;5078378;28;20020;-86
2024/03/16 11:53:09;;;;;;;0.47;0.43;;;;;;;;;;5059997;28;20024;-86
2024/03/16 11:55:36;;;;;;;1.25;0.30;;;;;;;;;;5078170;28;20408;-86
2024/03/16 11:58:05;;;;;;;0.68;0.65;;;;;;;;;;5059365;28;20108;-86
2024/03/16 12:00:32;;;;;;;0.35;0.35;;;;;;;;;;5077439;28;20524;-86
2024/03/16 12:03:06;;;;;;;1.63;0.50;;;;;;;;;;5060207;28;20035;-85
2024/03/16 12:05:35;;;;;;;0.75;0.40;;;;;;;;;;5078333;28;20168;-87
2024/03/16 12:08:05;;;;;;;1.35;0.50;;;;;;;;;;5060326;28;20111;-85
2024/03/16 12:10:34;;;;;;;2.15;0.63;;;;;;;;;;5078226;28;20046;-86
2024/03/16 12:13:00;;;;;;;2.83;0.80;;;;;;;;;;5078749;28;20074;-85
2024/03/16 12:15:27;;;;;;;0.68;0.45;;;;;;;;;;5074241;28;20036;-78
2024/03/16 12:17:54;;;;;;;2.05;0.50;;;;;;;;;;5073295;28;20037;-80
2024/03/16 12:20:20;;;;;;;1.38;0.50;;;;;;;;;;5054985;28;20074;-80
2024/03/16 12:22:55;;;;;;;1.25;0.57;;;;;;;;;;5054027;28;20028;-80
2024/03/16 12:25:25;;;;;;;0.50;0.50;;;;;;;;;;5073092;28;20095;-80
2024/03/16 12:27:54;;;;;;;0.60;0.60;;;;;;;;;;5055216;28;20387;-80
2024/03/16 12:30:21;;;;;;;1.08;0.68;;;;;;;;;;5054994;28;20473;-79
2024/03/16 12:32:47;;;;;;;2.97;0.65;;;;;;;;;;5054939;28;20032;-80
2024/03/16 12:35:13;;;;;;;1.58;0.90;;;;;;;;;;5055982;28;20065;-80
2024/03/16 12:37:39;;;;;;;0.40;0.40;;;;;;;;;;5054832;28;20089;-79
2024/03/16 12:40:06;;;;;;;4.60;0.50;;;;;;;;;;5055039;28;20020;-80
2024/03/16 12:42:35;;;;;;;2.35;1.02;;;;;;;;;;5073610;28;20031;-81
2024/03/16 12:45:01;;;;;;;1.02;0.63;;;;;;;;;;5073811;28;20034;-81
2024/03/16 12:47:29;;;;;;;0.55;0.50;;;;;;;;;;5055240;28;20024;-80
2024/03/16 12:49:56;;;;;;;0.95;0.40;;;;;;;;;;5072966;28;20035;-79
2024/03/16 12:52:23;;;;;;;1.92;1.60;;;;;;;;;;5073799;28;20028;-80
2024/03/16 12:54:50;;;;;;;3.45;0.65;;;;;;;;;;5055118;28;20523;-80
2024/03/16 12:57:16;;;;;;;1.50;0.73;;;;;;;;;;5055658;28;20029;-80
2024/03/16 12:59:41;;;;;;;1.45;0.52;;;;;;;;;;5073474;28;20037;-79
2024/03/16 13:02:08;;;;;;;1.88;0.70;;;;;;;;;;5056415;28;20056;-78
2024/03/16 13:04:34;;;;;;;1.83;0.80;;;;;;;;;;5059770;28;20024;-80
2024/03/16 13:07:00;;;;;;;2.13;0.73;;;;;;;;;;5059746;28;20024;-80
2024/03/16 13:09:26;;;;;;;0.88;0.88;;;;;;;;;;5059615;28;20499;-81
2024/03/16 13:11:52;;;;;;;1.23;1.05;;;;;;;;;;5059881;28;20039;-82
2024/03/16 13:14:18;;;;;;;0.55;0.47;;;;;;;;;;5059262;28;20024;-79
2024/03/16 13:16:44;;;;;;;0.88;0.70;;;;;;;;;;5077453;28;20085;-80
2024/03/16 13:19:13;;;;;;;7.05;0.93;;;;;;;;;;5043078;28;20028;-78
2024/03/16 13:21:40;;;;;;;1.08;0.77;;;;;;;;;;5076992;28;20021;-80
2024/03/16 13:24:06;;;;;;;1.38;0.90;;;;;;;;;;5059829;28;20028;-80
2024/03/16 13:26:32;;;;;;;1.25;0.88;;;;;;;;;;5059218;28;20115;-79
2024/03/16 13:28:59;;;;;;;2.08;0.90;;;;;;;;;;5059070;28;20052;-80
2024/03/16 13:31:25;;;;;;;3.33;1.67;;;;;;;;;;5059265;28;20501;-80
2024/03/16 13:33:50;;;;;;;6.95;1.30;;;;;;;;;;5059207;28;20032;-82
2024/03/16 13:36:16;;;;;;;1.17;0.55;;;;;;;;;;5058513;28;20469;-81
2024/03/16 13:38:43;;;;;;;2.42;1.00;;;;;;;;;;5077109;28;20108;-79
2024/03/16 13:41:12;;;;;;;2.42;0.80;;;;;;;;;;5076276;28;20025;-81
2024/03/16 13:43:42;;;;;;;2.90;1.10;;;;;;;;;;5059144;28;20139;-79
2024/03/16 13:46:08;;;;;;;1.20;0.70;;;;;;;;;;5059031;28;20081;-79
2024/03/16 13:48:34;;;;;;;2.20;0.57;;;;;;;;;;5058347;28;20029;-79
2024/03/16 13:50:59;;;;;;;3.05;0.70;;;;;;;;;;5076756;28;20054;-79
2024/03/16 13:53:27;;;;;;;1.80;0.80;;;;;;;;;;5075999;28;20024;-79
2024/03/16 13:55:52;;;;;;;1.55;0.70;;;;;;;;;;5076910;28;20130;-79
2024/03/16 13:58:18;;;;;;;1.55;0.80;;;;;;;;;;5075747;28;20060;-81
2024/03/16 14:00:44;;;;;;;1.77;0.65;;;;;;;;;;5057734;28;20139;-80
2024/03/16 14:03:10;;;;;;;0.90;0.60;;;;;;;;;;5075950;28;20027;-79
2024/03/16 14:05:36;;;;;;;1.75;0.60;;;;;;;;;;5058166;28;20021;-82
2024/03/16 14:08:01;;;;;;;0.85;0.75;;;;;;;;;;5041068;28;20071;-79
2024/03/16 14:10:29;;;;;;;0.70;0.70;;;;;;;;;;5075806;28;20024;-79
2024/03/16 14:12:56;;;;;;;1.00;0.70;;;;;;;;;;5075117;28;20028;-80
2024/03/16 14:15:22;;;;;;;2.92;0.47;;;;;;;;;;5075595;28;20031;-80
2024/03/16 14:17:48;;;;;;;0.60;0.50;;;;;;;;;;5076097;28;20024;-80
2024/03/16 14:20:17;;;;;;;3.53;0.90;;;;;;;;;;5057363;28;20033;-80
2024/03/16 14:22:44;;;;;;;0.63;0.50;;;;;;;;;;5057708;28;20421;-78
2024/03/16 14:25:10;;;;;;;1.08;0.82;;;;;;;;;;5056995;28;20027;-80
2024/03/16 14:27:36;;;;;;;1.02;0.80;;;;;;;;;;5075539;28;20032;-80
2024/03/16 14:30:10;;;;;;;2.05;0.90;;;;;;;;;;5057133;28;20028;-80
2024/03/16 14:32:36;;;;;;;1.50;0.60;;;;;;;;;;5057746;28;20054;-78
2024/03/16 14:35:03;;;;;;;1.75;0.70;;;;;;;;;;5057875;28;20112;-79
2024/03/16 14:37:30;;;;;;;1.88;0.47;;;;;;;;;;5075156;28;20108;-79
2024/03/16 14:39:55;;;;;;;3.20;0.65;;;;;;;;;;5057294;28;20111;-80
2024/03/16 14:42:24;;;;;;;1.75;0.80;;;;;;;;;;5056903;28;20035;-80
2024/03/16 14:44:52;;;;;;;6.43;0.95;;;;;;;;;;5074957;28;20032;-79
2024/03/16 14:47:18;;;;;;;1.02;0.90;;;;;;;;;;5074596;28;20016;-78